sensor_id;sensor_type;location;lat;lon;timestamp;temperature;humidity
60701;DHT22;46541;49.894;10.886;2022-10-30T00:00:42;13.90;99.90
60701;DHT22;46541;49.894;10.886;2022-10-30T00:03:11;13.90;99.90
60701;DHT22;46541;49.894;10.886;2022-10-30T00:05:42;13.80;99.90
60701;DHT22;46541;49.894;10.886;2022-10-30T00:08:11;13.80;99.90
60701;DHT22;46541;49.894;10.886;2022-10-30T00:10:38;13.80;99.90
60701;DHT22;46541;49.894;10.886;2022-10-30T00:13:05;13.80;99.90
60701;DHT22;46541;49.894;10.886;2022-10-30T00:15:32;13.80;99.90
60701;DHT22;46541;49.894;10.886;2022-10-30T00:17:59;13.80;99.90
60701;DHT22;46541;49.894;10.886;2022-10-30T00:20:27;13.70;99.90
60701;DHT22;46541;49.894;10.886;2022-10-30T00:22:54;13.70;99.90
60701;DHT22;46541;49.894;10.886;2022-10-30T00:25:21;13.70;99.90
60701;DHT22;46541;49.894;10.886;2022-10-30T00:27:48;13.70;99.90
60701;DHT22;46541;49.894;10.886;2022-10-30T00:30:15;13.80;99.90
60701;DHT22;46541;49.894;10.886;2022-10-30T00:32:42;13.80;99.90
60701;DHT22;46541;49.894;10.886;2022-10-30T00:35:09;13.80;99.90
60701;DHT22;46541;49.894;10.886;2022-10-30T00:37:36;13.80;99.90
60701;DHT22;46541;49.894;10.886;2022-10-30T00:40:04;13.80;99.90
60701;DHT22;46541;49.894;10.886;2022-10-30T00:42:32;13.80;99.90
60701;DHT22;46541;49.894;10.886;2022-10-30T00:44:59;13.80;99.90
60701;DHT22;46541;49.894;10.886;2022-10-30T00:50:27;13.80;99.90
60701;DHT22;46541;49.894;10.886;2022-10-30T00:53:07;13.80;99.90
60701;DHT22;46541;49.894;10.886;2022-10-30T00:55:41;13.80;99.90
60701;DHT22;46541;49.894;10.886;2022-10-30T00:58:12;13.80;99.90
60701;DHT22;46541;49.894;10.886;2022-10-30T01:00:44;13.90;99.90
60701;DHT22;46541;49.894;10.886;2022-10-30T01:03:11;13.90;99.90
60701;DHT22;46541;49.894;10.886;2022-10-30T01:05:39;13.90;99.90
60701;DHT22;46541;49.894;10.886;2022-10-30T01:08:07;13.90;99.90
60701;DHT22;46541;49.894;10.886;2022-10-30T01:10:34;13.90;99.90
60701;DHT22;46541;49.894;10.886;2022-10-30T01:13:01;13.90;99.90
60701;DHT22;46541;49.894;10.886;2022-10-30T01:15:34;13.90;99.90
60701;DHT22;46541;49.894;10.886;2022-10-30T01:21:00;13.90;99.90
60701;DHT22;46541;49.894;10.886;2022-10-30T01:37:15;13.90;99.90
60701;DHT22;46541;49.894;10.886;2022-10-30T01:39:43;13.90;99.90
60701;DHT22;46541;49.894;10.886;2022-10-30T01:42:46;13.90;99.90
60701;DHT22;46541;49.894;10.886;2022-10-30T01:53:46;13.90;99.90
60701;DHT22;46541;49.894;10.886;2022-10-30T01:56:29;14.00;99.90
60701;DHT22;46541;49.894;10.886;2022-10-30T01:59:10;14.00;99.90
60701;DHT22;46541;49.894;10.886;2022-10-30T02:01:39;14.10;99.90
60701;DHT22;46541;49.894;10.886;2022-10-30T02:04:07;14.00;99.90
60701;DHT22;46541;49.894;10.886;2022-10-30T02:06:36;14.00;99.90
60701;DHT22;46541;49.894;10.886;2022-10-30T02:09:04;14.00;99.90
60701;DHT22;46541;49.894;10.886;2022-10-30T02:11:32;14.00;99.90
60701;DHT22;46541;49.894;10.886;2022-10-30T02:14:03;14.00;99.90
60701;DHT22;46541;49.894;10.886;2022-10-30T02:16:34;14.00;99.90
60701;DHT22;46541;49.894;10.886;2022-10-30T02:19:03;14.00;99.90
60701;DHT22;46541;49.894;10.886;2022-10-30T02:21:30;13.90;99.90
60701;DHT22;46541;49.894;10.886;2022-10-30T02:23:56;13.90;99.90
60701;DHT22;46541;49.894;10.886;2022-10-30T02:26:23;13.90;99.90
60701;DHT22;46541;49.894;10.886;2022-10-30T02:28:50;13.90;99.90
60701;DHT22;46541;49.894;10.886;2022-10-30T02:31:17;14.00;99.90
60701;DHT22;46541;49.894;10.886;2022-10-30T02:33:45;14.00;99.90
60701;DHT22;46541;49.894;10.886;2022-10-30T02:36:13;13.90;99.90
60701;DHT22;46541;49.894;10.886;2022-10-30T02:38:42;13.90;99.90
60701;DHT22;46541;49.894;10.886;2022-10-30T02:41:09;13.90;99.90
60701;DHT22;46541;49.894;10.886;2022-10-30T02:43:36;13.90;99.90
60701;DHT22;46541;49.894;10.886;2022-10-30T02:46:03;13.90;99.90
60701;DHT22;46541;49.894;10.886;2022-10-30T02:48:31;13.90;99.90
60701;DHT22;46541;49.894;10.886;2022-10-30T02:50:59;13.90;99.90
60701;DHT22;46541;49.894;10.886;2022-10-30T02:53:27;13.90;99.90
60701;DHT22;46541;49.894;10.886;2022-10-30T02:55:54;13.90;99.90
60701;DHT22;46541;49.894;10.886;2022-10-30T02:58:21;13.90;99.90
60701;DHT22;46541;49.894;10.886;2022-10-30T03:00:48;13.80;99.90
60701;DHT22;46541;49.894;10.886;2022-10-30T03:03:14;13.80;99.90
60701;DHT22;46541;49.894;10.886;2022-10-30T03:05:47;13.90;99.90
60701;DHT22;46541;49.894;10.886;2022-10-30T03:08:13;13.80;99.90
60701;DHT22;46541;49.894;10.886;2022-10-30T03:10:40;13.90;99.90
60701;DHT22;46541;49.894;10.886;2022-10-30T03:13:07;13.90;99.90
60701;DHT22;46541;49.894;10.886;2022-10-30T03:15:33;13.90;99.90
60701;DHT22;46541;49.894;10.886;2022-10-30T03:18:00;13.90;99.90
60701;DHT22;46541;49.894;10.886;2022-10-30T03:20:27;13.90;99.90
60701;DHT22;46541;49.894;10.886;2022-10-30T03:22:53;13.90;99.90
60701;DHT22;46541;49.894;10.886;2022-10-30T03:25:20;13.90;99.90
60701;DHT22;46541;49.894;10.886;2022-10-30T03:27:49;13.90;99.90
60701;DHT22;46541;49.894;10.886;2022-10-30T03:30:17;13.80;99.90
60701;DHT22;46541;49.894;10.886;2022-10-30T03:32:43;13.90;99.90
60701;DHT22;46541;49.894;10.886;2022-10-30T03:35:10;13.90;99.90
60701;DHT22;46541;49.894;10.886;2022-10-30T03:37:37;13.90;99.90
60701;DHT22;46541;49.894;10.886;2022-10-30T03:40:04;13.80;99.90
60701;DHT22;46541;49.894;10.886;2022-10-30T03:42:31;13.90;99.90
60701;DHT22;46541;49.894;10.886;2022-10-30T03:44:58;13.90;99.90
60701;DHT22;46541;49.894;10.886;2022-10-30T03:47:25;13.80;99.90
60701;DHT22;46541;49.894;10.886;2022-10-30T03:49:51;13.80;99.90
60701;DHT22;46541;49.894;10.886;2022-10-30T03:52:18;13.80;99.90
60701;DHT22;46541;49.894;10.886;2022-10-30T03:54:45;13.80;99.90
60701;DHT22;46541;49.894;10.886;2022-10-30T03:57:12;13.80;99.90
60701;DHT22;46541;49.894;10.886;2022-10-30T03:59:38;13.80;99.90
60701;DHT22;46541;49.894;10.886;2022-10-30T04:02:05;13.80;99.90
60701;DHT22;46541;49.894;10.886;2022-10-30T04:04:32;13.80;99.90
60701;DHT22;46541;49.894;10.886;2022-10-30T04:06:59;13.80;99.90
60701;DHT22;46541;49.894;10.886;2022-10-30T04:09:25;13.80;99.90
60701;DHT22;46541;49.894;10.886;2022-10-30T04:11:52;13.70;99.90
60701;DHT22;46541;49.894;10.886;2022-10-30T04:14:19;13.70;99.90
60701;DHT22;46541;49.894;10.886;2022-10-30T04:16:46;13.70;99.90
60701;DHT22;46541;49.894;10.886;2022-10-30T04:19:12;13.70;99.90
60701;DHT22;46541;49.894;10.886;2022-10-30T04:21:39;13.70;99.90
60701;DHT22;46541;49.894;10.886;2022-10-30T04:24:09;13.60;99.90
60701;DHT22;46541;49.894;10.886;2022-10-30T04:26:35;13.60;99.90
60701;DHT22;46541;49.894;10.886;2022-10-30T04:29:02;13.60;99.90
60701;DHT22;46541;49.894;10.886;2022-10-30T04:31:29;13.60;99.90
60701;DHT22;46541;49.894;10.886;2022-10-30T04:33:56;13.50;99.90
60701;DHT22;46541;49.894;10.886;2022-10-30T04:36:22;13.50;99.90
60701;DHT22;46541;49.894;10.886;2022-10-30T04:38:55;13.50;99.90
60701;DHT22;46541;49.894;10.886;2022-10-30T04:41:22;13.50;99.90
60701;DHT22;46541;49.894;10.886;2022-10-30T04:43:49;13.60;99.90
60701;DHT22;46541;49.894;10.886;2022-10-30T04:46:17;13.60;99.90
60701;DHT22;46541;49.894;10.886;2022-10-30T04:48:44;13.50;99.90
60701;DHT22;46541;49.894;10.886;2022-10-30T04:51:11;13.50;99.90
60701;DHT22;46541;49.894;10.886;2022-10-30T04:53:38;13.50;99.90
60701;DHT22;46541;49.894;10.886;2022-10-30T04:56:05;13.50;99.90
60701;DHT22;46541;49.894;10.886;2022-10-30T04:58:32;13.60;99.90
60701;DHT22;46541;49.894;10.886;2022-10-30T05:01:02;13.50;99.90
60701;DHT22;46541;49.894;10.886;2022-10-30T05:03:30;13.50;99.90
60701;DHT22;46541;49.894;10.886;2022-10-30T05:06:12;13.40;99.90
60701;DHT22;46541;49.894;10.886;2022-10-30T05:08:41;13.40;99.90
60701;DHT22;46541;49.894;10.886;2022-10-30T05:11:07;13.40;99.90
60701;DHT22;46541;49.894;10.886;2022-10-30T05:13:34;13.40;99.90
60701;DHT22;46541;49.894;10.886;2022-10-30T05:16:01;13.30;99.90
60701;DHT22;46541;49.894;10.886;2022-10-30T05:18:28;13.30;99.90
60701;DHT22;46541;49.894;10.886;2022-10-30T05:20:54;13.30;99.90
60701;DHT22;46541;49.894;10.886;2022-10-30T05:23:21;13.20;99.90
60701;DHT22;46541;49.894;10.886;2022-10-30T05:25:48;13.20;99.90
60701;DHT22;46541;49.894;10.886;2022-10-30T05:28:15;13.20;99.90
60701;DHT22;46541;49.894;10.886;2022-10-30T05:31:05;13.20;99.90
60701;DHT22;46541;49.894;10.886;2022-10-30T05:33:57;13.20;99.90
60701;DHT22;46541;49.894;10.886;2022-10-30T05:36:47;13.20;99.90
60701;DHT22;46541;49.894;10.886;2022-10-30T05:39:38;13.20;99.90
60701;DHT22;46541;49.894;10.886;2022-10-30T05:42:29;13.20;99.90
60701;DHT22;46541;49.894;10.886;2022-10-30T05:45:20;13.20;99.90
60701;DHT22;46541;49.894;10.886;2022-10-30T05:48:10;13.20;99.90
60701;DHT22;46541;49.894;10.886;2022-10-30T05:51:01;13.10;99.90
60701;DHT22;46541;49.894;10.886;2022-10-30T05:53:53;13.10;99.90
60701;DHT22;46541;49.894;10.886;2022-10-30T05:56:44;13.10;99.90
60701;DHT22;46541;49.894;10.886;2022-10-30T05:59:35;13.10;99.90
60701;DHT22;46541;49.894;10.886;2022-10-30T06:02:26;13.10;99.90
60701;DHT22;46541;49.894;10.886;2022-10-30T06:05:17;13.10;99.90
60701;DHT22;46541;49.894;10.886;2022-10-30T06:08:08;13.10;99.90
60701;DHT22;46541;49.894;10.886;2022-10-30T06:10:59;13.10;99.90
60701;DHT22;46541;49.894;10.886;2022-10-30T06:13:50;13.10;99.90
60701;DHT22;46541;49.894;10.886;2022-10-30T06:16:41;13.10;99.90
60701;DHT22;46541;49.894;10.886;2022-10-30T06:19:33;13.10;99.90
60701;DHT22;46541;49.894;10.886;2022-10-30T06:22:24;13.10;99.90
60701;DHT22;46541;49.894;10.886;2022-10-30T06:25:15;13.10;99.90
60701;DHT22;46541;49.894;10.886;2022-10-30T06:28:06;13.10;99.90
60701;DHT22;46541;49.894;10.886;2022-10-30T06:30:56;13.10;99.90
60701;DHT22;46541;49.894;10.886;2022-10-30T06:33:47;13.10;99.90
60701;DHT22;46541;49.894;10.886;2022-10-30T06:36:38;13.10;99.90
60701;DHT22;46541;49.894;10.886;2022-10-30T06:39:29;13.00;99.90
60701;DHT22;46541;49.894;10.886;2022-10-30T06:42:20;13.00;99.90
60701;DHT22;46541;49.894;10.886;2022-10-30T06:45:13;13.10;99.90
60701;DHT22;46541;49.894;10.886;2022-10-30T06:48:04;13.10;99.90
60701;DHT22;46541;49.894;10.886;2022-10-30T06:50:56;13.20;99.90
60701;DHT22;46541;49.894;10.886;2022-10-30T06:53:46;13.20;99.90
60701;DHT22;46541;49.894;10.886;2022-10-30T06:56:38;13.20;99.90
60701;DHT22;46541;49.894;10.886;2022-10-30T06:59:28;13.20;99.90
60701;DHT22;46541;49.894;10.886;2022-10-30T07:02:19;13.20;99.90
60701;DHT22;46541;49.894;10.886;2022-10-30T07:05:10;13.10;99.90
60701;DHT22;46541;49.894;10.886;2022-10-30T07:08:02;13.10;99.90
60701;DHT22;46541;49.894;10.886;2022-10-30T07:10:55;13.20;99.90
60701;DHT22;46541;49.894;10.886;2022-10-30T07:13:46;13.10;99.90
60701;DHT22;46541;49.894;10.886;2022-10-30T07:16:38;13.10;99.90
60701;DHT22;46541;49.894;10.886;2022-10-30T07:19:29;13.10;99.90
60701;DHT22;46541;49.894;10.886;2022-10-30T07:22:20;13.20;99.90
60701;DHT22;46541;49.894;10.886;2022-10-30T07:25:10;13.20;99.90
60701;DHT22;46541;49.894;10.886;2022-10-30T07:28:02;13.20;99.90
60701;DHT22;46541;49.894;10.886;2022-10-30T07:30:52;13.20;99.90
60701;DHT22;46541;49.894;10.886;2022-10-30T07:33:44;13.20;99.90
60701;DHT22;46541;49.894;10.886;2022-10-30T07:36:35;13.30;99.90
60701;DHT22;46541;49.894;10.886;2022-10-30T07:39:25;13.40;99.90
60701;DHT22;46541;49.894;10.886;2022-10-30T07:42:16;13.40;99.90
60701;DHT22;46541;49.894;10.886;2022-10-30T07:45:08;13.40;99.90
60701;DHT22;46541;49.894;10.886;2022-10-30T07:47:58;13.40;99.90
60701;DHT22;46541;49.894;10.886;2022-10-30T07:50:49;13.40;99.90
60701;DHT22;46541;49.894;10.886;2022-10-30T07:53:40;13.50;99.90
60701;DHT22;46541;49.894;10.886;2022-10-30T07:56:31;13.60;99.90
60701;DHT22;46541;49.894;10.886;2022-10-30T07:59:23;13.60;99.90
60701;DHT22;46541;49.894;10.886;2022-10-30T08:02:14;13.70;99.90
60701;DHT22;46541;49.894;10.886;2022-10-30T08:05:05;13.80;99.90
60701;DHT22;46541;49.894;10.886;2022-10-30T08:07:56;13.80;99.90
60701;DHT22;46541;49.894;10.886;2022-10-30T08:10:47;13.90;99.90
60701;DHT22;46541;49.894;10.886;2022-10-30T08:13:39;14.00;99.90
60701;DHT22;46541;49.894;10.886;2022-10-30T08:16:30;14.00;99.90
60701;DHT22;46541;49.894;10.886;2022-10-30T08:19:21;14.00;99.90
60701;DHT22;46541;49.894;10.886;2022-10-30T08:22:12;14.10;99.90
60701;DHT22;46541;49.894;10.886;2022-10-30T08:25:04;14.10;99.90
60701;DHT22;46541;49.894;10.886;2022-10-30T08:27:57;14.20;99.90
60701;DHT22;46541;49.894;10.886;2022-10-30T08:30:49;14.20;99.90
60701;DHT22;46541;49.894;10.886;2022-10-30T08:33:40;14.30;99.90
60701;DHT22;46541;49.894;10.886;2022-10-30T08:36:30;14.40;99.90
60701;DHT22;46541;49.894;10.886;2022-10-30T08:39:22;14.50;99.90
60701;DHT22;46541;49.894;10.886;2022-10-30T08:42:13;14.50;99.90
60701;DHT22;46541;49.894;10.886;2022-10-30T08:45:05;14.60;99.90
60701;DHT22;46541;49.894;10.886;2022-10-30T08:48:00;14.70;99.90
60701;DHT22;46541;49.894;10.886;2022-10-30T08:50:57;14.80;99.90
60701;DHT22;46541;49.894;10.886;2022-10-30T08:53:48;14.90;99.90
60701;DHT22;46541;49.894;10.886;2022-10-30T08:56:41;14.90;99.90
60701;DHT22;46541;49.894;10.886;2022-10-30T08:59:33;15.00;99.90
60701;DHT22;46541;49.894;10.886;2022-10-30T09:02:24;15.00;99.90
60701;DHT22;46541;49.894;10.886;2022-10-30T09:05:15;15.20;99.90
60701;DHT22;46541;49.894;10.886;2022-10-30T09:08:05;15.30;99.90
60701;DHT22;46541;49.894;10.886;2022-10-30T09:10:57;15.40;99.90
60701;DHT22;46541;49.894;10.886;2022-10-30T09:13:48;15.50;99.90
60701;DHT22;46541;49.894;10.886;2022-10-30T09:16:39;15.60;99.90
